sensor_id;sensor_type;location;lat;lon;timestamp;pressure;altitude;pressure_sealevel;temperature;humidity
49827;BME280;35715;51.570;6.036;2022-07-12T00:00:26;102320.88;;;18.81;69.97
49827;BME280;35715;51.570;6.036;2022-07-12T00:02:51;102318.00;;;18.76;69.94
49827;BME280;35715;51.570;6.036;2022-07-12T00:05:20;102322.25;;;18.74;69.94
49827;BME280;35715;51.570;6.036;2022-07-12T00:07:45;102319.31;;;18.70;69.85
49827;BME280;35715;51.570;6.036;2022-07-12T00:10:10;102320.78;;;18.65;69.59
49827;BME280;35715;51.570;6.036;2022-07-12T00:12:36;102308.34;;;18.60;70.00
49827;BME280;35715;51.570;6.036;2022-07-12T00:15:01;102316.09;;;18.59;69.93
49827;BME280;35715;51.570;6.036;2022-07-12T00:17:29;102317.00;;;18.59;69.88
49827;BME280;35715;51.570;6.036;2022-07-12T00:19:57;102316.94;;;18.58;69.80
49827;BME280;35715;51.570;6.036;2022-07-12T00:22:23;102311.59;;;18.56;69.35
49827;BME280;35715;51.570;6.036;2022-07-12T00:24:48;102300.13;;;18.54;69.29
49827;BME280;35715;51.570;6.036;2022-07-12T00:27:16;102302.50;;;18.50;69.26
49827;BME280;35715;51.570;6.036;2022-07-12T00:29:42;102298.91;;;18.48;69.18
49827;BME280;35715;51.570;6.036;2022-07-12T00:32:07;102298.81;;;18.46;69.28
49827;BME280;35715;51.570;6.036;2022-07-12T00:34:33;102284.75;;;18.44;69.54
49827;BME280;35715;51.570;6.036;2022-07-12T00:37:06;102296.72;;;18.40;69.29
49827;BME280;35715;51.570;6.036;2022-07-12T00:39:31;102289.59;;;18.38;69.64
49827;BME280;35715;51.570;6.036;2022-07-12T00:41:56;102290.44;;;18.37;69.18
49827;BME280;35715;51.570;6.036;2022-07-12T00:44:22;102284.19;;;18.35;69.38
49827;BME280;35715;51.570;6.036;2022-07-12T00:46:47;102277.97;;;18.33;69.02
49827;BME280;35715;51.570;6.036;2022-07-12T00:49:13;102278.88;;;18.33;68.83
49827;BME280;35715;51.570;6.036;2022-07-12T00:51:42;102285.72;;;18.31;69.05
49827;BME280;35715;51.570;6.036;2022-07-12T00:54:09;102273.38;;;18.29;69.08
49827;BME280;35715;51.570;6.036;2022-07-12T00:56:34;102276.63;;;18.24;69.07
49827;BME280;35715;51.570;6.036;2022-07-12T00:59:00;102274.75;;;18.22;69.31
49827;BME280;35715;51.570;6.036;2022-07-12T01:01:25;102274.66;;;18.20;69.51
49827;BME280;35715;51.570;6.036;2022-07-12T01:03:51;102278.06;;;18.19;69.36
49827;BME280;35715;51.570;6.036;2022-07-12T01:06:19;102279.59;;;18.16;69.85
49827;BME280;35715;51.570;6.036;2022-07-12T01:08:45;102276.81;;;18.13;70.01
49827;BME280;35715;51.570;6.036;2022-07-12T01:11:10;102283.53;;;18.09;69.22
49827;BME280;35715;51.570;6.036;2022-07-12T01:13:37;102287.69;;;18.05;69.72
49827;BME280;35715;51.570;6.036;2022-07-12T01:16:14;102285.69;;;18.01;69.50
49827;BME280;35715;51.570;6.036;2022-07-12T01:18:40;102290.03;;;18.01;69.92
49827;BME280;35715;51.570;6.036;2022-07-12T01:21:07;102289.03;;;17.99;70.09
49827;BME280;35715;51.570;6.036;2022-07-12T01:23:34;102286.16;;;17.94;69.93
49827;BME280;35715;51.570;6.036;2022-07-12T01:26:03;102291.28;;;17.93;69.72
49827;BME280;35715;51.570;6.036;2022-07-12T01:28:28;102290.94;;;17.88;69.83
49827;BME280;35715;51.570;6.036;2022-07-12T01:30:56;102285.63;;;17.86;69.37
49827;BME280;35715;51.570;6.036;2022-07-12T01:33:22;102289.06;;;17.85;69.21
49827;BME280;35715;51.570;6.036;2022-07-12T01:35:49;102288.13;;;17.85;69.04
49827;BME280;35715;51.570;6.036;2022-07-12T01:38:15;102295.00;;;17.83;69.21
49827;BME280;35715;51.570;6.036;2022-07-12T01:40:41;102299.94;;;17.78;69.20
49827;BME280;35715;51.570;6.036;2022-07-12T01:43:06;102304.97;;;17.75;69.77
49827;BME280;35715;51.570;6.036;2022-07-12T01:45:40;102310.09;;;17.73;69.99
49827;BME280;35715;51.570;6.036;2022-07-12T01:48:06;102314.31;;;17.71;69.79
49827;BME280;35715;51.570;6.036;2022-07-12T01:50:32;102316.66;;;17.67;70.08
49827;BME280;35715;51.570;6.036;2022-07-12T01:52:57;102311.34;;;17.65;69.98
49827;BME280;35715;51.570;6.036;2022-07-12T01:55:25;102315.63;;;17.65;69.93
49827;BME280;35715;51.570;6.036;2022-07-12T01:57:50;102323.28;;;17.62;70.19
49827;BME280;35715;51.570;6.036;2022-07-12T02:00:16;102318.66;;;17.58;70.24
49827;BME280;35715;51.570;6.036;2022-07-12T02:02:45;102317.56;;;17.54;69.94
49827;BME280;35715;51.570;6.036;2022-07-12T02:05:11;102314.88;;;17.52;70.33
49827;BME280;35715;51.570;6.036;2022-07-12T02:07:36;102314.88;;;17.52;70.26
49827;BME280;35715;51.570;6.036;2022-07-12T02:10:05;102317.47;;;17.52;70.02
49827;BME280;35715;51.570;6.036;2022-07-12T02:12:30;102324.41;;;17.52;69.77
49827;BME280;35715;51.570;6.036;2022-07-12T02:14:56;102319.91;;;17.49;69.74
49827;BME280;35715;51.570;6.036;2022-07-12T02:17:21;102319.59;;;17.45;70.03
49827;BME280;35715;51.570;6.036;2022-07-12T02:19:47;102315.09;;;17.42;69.89
49827;BME280;35715;51.570;6.036;2022-07-12T02:22:12;102309.78;;;17.41;70.23
49827;BME280;35715;51.570;6.036;2022-07-12T02:24:37;102308.78;;;17.38;70.26
49827;BME280;35715;51.570;6.036;2022-07-12T02:27:13;102308.50;;;17.34;70.34
49827;BME280;35715;51.570;6.036;2022-07-12T02:29:39;102309.19;;;17.31;71.17
49827;BME280;35715;51.570;6.036;2022-07-12T02:32:06;102309.28;;;17.33;71.12
49827;BME280;35715;51.570;6.036;2022-07-12T02:34:32;102308.31;;;17.31;71.28
49827;BME280;35715;51.570;6.036;2022-07-12T02:37:00;102304.66;;;17.29;71.64
49827;BME280;35715;51.570;6.036;2022-07-12T02:39:25;102305.50;;;17.28;72.02
49827;BME280;35715;51.570;6.036;2022-07-12T02:41:51;102307.38;;;17.30;73.08
49827;BME280;35715;51.570;6.036;2022-07-12T02:44:17;102307.56;;;17.33;73.26
49827;BME280;35715;51.570;6.036;2022-07-12T02:46:47;102310.38;;;17.36;73.61
49827;BME280;35715;51.570;6.036;2022-07-12T02:49:13;102304.38;;;17.37;74.65
49827;BME280;35715;51.570;6.036;2022-07-12T02:51:38;102303.38;;;17.35;74.65
49827;BME280;35715;51.570;6.036;2022-07-12T02:54:04;102301.66;;;17.36;74.25
49827;BME280;35715;51.570;6.036;2022-07-12T02:56:35;102308.59;;;17.35;73.94
49827;BME280;35715;51.570;6.036;2022-07-12T02:59:01;102298.06;;;17.34;73.50
49827;BME280;35715;51.570;6.036;2022-07-12T03:01:26;102296.16;;;17.31;73.25
49827;BME280;35715;51.570;6.036;2022-07-12T03:03:51;102304.66;;;17.29;73.04
49827;BME280;35715;51.570;6.036;2022-07-12T03:06:17;102306.09;;;17.24;73.42
49827;BME280;35715;51.570;6.036;2022-07-12T03:08:42;102301.66;;;17.23;72.78
49827;BME280;35715;51.570;6.036;2022-07-12T03:11:08;102302.41;;;17.20;73.09
49827;BME280;35715;51.570;6.036;2022-07-12T03:13:33;102302.22;;;17.17;72.94
49827;BME280;35715;51.570;6.036;2022-07-12T03:16:00;102303.69;;;17.13;73.06
49827;BME280;35715;51.570;6.036;2022-07-12T03:18:25;102300.09;;;17.11;72.90
49827;BME280;35715;51.570;6.036;2022-07-12T03:20:50;102298.09;;;17.07;72.56
49827;BME280;35715;51.570;6.036;2022-07-12T03:23:16;102292.78;;;17.06;72.46
49827;BME280;35715;51.570;6.036;2022-07-12T03:25:42;102298.69;;;17.03;72.29
49827;BME280;35715;51.570;6.036;2022-07-12T03:28:08;102303.81;;;17.01;71.59
49827;BME280;35715;51.570;6.036;2022-07-12T03:30:33;102307.94;;;16.98;71.50
49827;BME280;35715;51.570;6.036;2022-07-12T03:32:58;102308.63;;;16.95;71.38
49827;BME280;35715;51.570;6.036;2022-07-12T03:35:24;102306.63;;;16.91;71.58
49827;BME280;35715;51.570;6.036;2022-07-12T03:37:51;102305.50;;;16.88;71.81
49827;BME280;35715;51.570;6.036;2022-07-12T03:40:18;102304.38;;;16.84;71.65
49827;BME280;35715;51.570;6.036;2022-07-12T03:42:44;102305.06;;;16.81;71.67
49827;BME280;35715;51.570;6.036;2022-07-12T03:45:13;102302.28;;;16.78;71.44
49827;BME280;35715;51.570;6.036;2022-07-12T03:47:39;102310.88;;;16.77;71.19
49827;BME280;35715;51.570;6.036;2022-07-12T03:50:06;102312.41;;;16.74;71.14
49827;BME280;35715;51.570;6.036;2022-07-12T03:52:32;102309.59;;;16.71;70.99
49827;BME280;35715;51.570;6.036;2022-07-12T03:54:58;102303.38;;;16.68;71.28
49827;BME280;35715;51.570;6.036;2022-07-12T03:57:28;102309.38;;;16.67;71.00
49827;BME280;35715;51.570;6.036;2022-07-12T03:59:54;102315.28;;;16.65;71.15
49827;BME280;35715;51.570;6.036;2022-07-12T04:02:20;102308.28;;;16.64;71.24
49827;BME280;35715;51.570;6.036;2022-07-12T04:04:45;102313.41;;;16.62;71.33
49827;BME280;35715;51.570;6.036;2022-07-12T04:07:22;102318.50;;;16.61;71.21
49827;BME280;35715;51.570;6.036;2022-07-12T04:09:47;102325.41;;;16.60;71.59
49827;BME280;35715;51.570;6.036;2022-07-12T04:12:13;102320.19;;;16.60;71.06
49827;BME280;35715;51.570;6.036;2022-07-12T04:14:38;102321.91;;;16.60;71.72
49827;BME280;35715;51.570;6.036;2022-07-12T04:17:05;102324.53;;;16.60;71.48
49827;BME280;35715;51.570;6.036;2022-07-12T04:19:32;102315.91;;;16.61;71.41
49827;BME280;35715;51.570;6.036;2022-07-12T04:21:59;102309.78;;;16.60;71.54
49827;BME280;35715;51.570;6.036;2022-07-12T04:24:25;102306.06;;;16.57;71.94
49827;BME280;35715;51.570;6.036;2022-07-12T04:26:58;102305.16;;;16.56;71.81
49827;BME280;35715;51.570;6.036;2022-07-12T04:29:24;102306.97;;;16.57;72.78
49827;BME280;35715;51.570;6.036;2022-07-12T04:31:49;102302.88;;;16.61;73.23
49827;BME280;35715;51.570;6.036;2022-07-12T04:34:15;102302.97;;;16.62;75.02
49827;BME280;35715;51.570;6.036;2022-07-12T04:36:44;102295.38;;;16.65;75.05
49827;BME280;35715;51.570;6.036;2022-07-12T04:39:10;102288.63;;;16.69;75.84
49827;BME280;35715;51.570;6.036;2022-07-12T04:41:36;102287.94;;;16.72;76.00
49827;BME280;35715;51.570;6.036;2022-07-12T04:44:05;102295.97;;;16.75;76.25
49827;BME280;35715;51.570;6.036;2022-07-12T04:46:31;102299.47;;;16.75;77.00
49827;BME280;35715;51.570;6.036;2022-07-12T04:48:57;102312.00;;;16.81;77.17
49827;BME280;35715;51.570;6.036;2022-07-12T04:51:22;102309.59;;;16.84;76.87
49827;BME280;35715;51.570;6.036;2022-07-12T04:53:48;102313.88;;;16.83;76.53
49827;BME280;35715;51.570;6.036;2022-07-12T04:56:17;102313.09;;;16.84;75.96
49827;BME280;35715;51.570;6.036;2022-07-12T04:58:42;102321.81;;;16.85;76.17
49827;BME280;35715;51.570;6.036;2022-07-12T05:01:08;102325.69;;;16.90;77.22
49827;BME280;35715;51.570;6.036;2022-07-12T05:03:34;102318.25;;;16.96;76.96
49827;BME280;35715;51.570;6.036;2022-07-12T05:06:01;102324.66;;;17.01;77.67
49827;BME280;35715;51.570;6.036;2022-07-12T05:08:26;102324.06;;;17.06;78.35
49827;BME280;35715;51.570;6.036;2022-07-12T05:10:51;102320.97;;;17.11;78.19
49827;BME280;35715;51.570;6.036;2022-07-12T05:13:17;102319.34;;;17.13;78.67
49827;BME280;35715;51.570;6.036;2022-07-12T05:15:43;102315.06;;;17.14;78.79
49827;BME280;35715;51.570;6.036;2022-07-12T05:18:08;102311.63;;;17.15;79.97
49827;BME280;35715;51.570;6.036;2022-07-12T05:20:34;102318.56;;;17.14;81.21
49827;BME280;35715;51.570;6.036;2022-07-12T05:22:59;102328.78;;;17.11;81.85
49827;BME280;35715;51.570;6.036;2022-07-12T05:25:39;102323.66;;;17.13;81.90
49827;BME280;35715;51.570;6.036;2022-07-12T05:28:04;102334.50;;;17.19;82.35
49827;BME280;35715;51.570;6.036;2022-07-12T05:30:29;102339.31;;;17.26;82.21
49827;BME280;35715;51.570;6.036;2022-07-12T05:32:55;102338.19;;;17.36;81.90
49827;BME280;35715;51.570;6.036;2022-07-12T05:35:20;102341.38;;;17.45;81.72
49827;BME280;35715;51.570;6.036;2022-07-12T05:37:46;102336.72;;;17.54;81.66
49827;BME280;35715;51.570;6.036;2022-07-12T05:40:13;102339.13;;;17.65;81.51
49827;BME280;35715;51.570;6.036;2022-07-12T05:42:38;102346.63;;;17.73;81.63
49827;BME280;35715;51.570;6.036;2022-07-12T05:45:04;102343.50;;;17.79;81.77
49827;BME280;35715;51.570;6.036;2022-07-12T05:47:30;102355.13;;;17.84;81.51
49827;BME280;35715;51.570;6.036;2022-07-12T05:49:55;102357.47;;;17.93;81.27
49827;BME280;35715;51.570;6.036;2022-07-12T05:52:21;102367.66;;;18.03;81.19
49827;BME280;35715;51.570;6.036;2022-07-12T05:55:05;102362.00;;;18.11;81.31
49827;BME280;35715;51.570;6.036;2022-07-12T05:57:31;102367.59;;;18.17;81.47
49827;BME280;35715;51.570;6.036;2022-07-12T05:59:56;102367.25;;;18.25;81.10
49827;BME280;35715;51.570;6.036;2022-07-12T06:02:22;102364.22;;;18.33;81.81
49827;BME280;35715;51.570;6.036;2022-07-12T06:04:47;102362.06;;;18.40;81.63
49827;BME280;35715;51.570;6.036;2022-07-12T06:07:14;102371.28;;;18.49;81.76
49827;BME280;35715;51.570;6.036;2022-07-12T06:09:39;102367.50;;;18.58;81.81
49827;BME280;35715;51.570;6.036;2022-07-12T06:12:05;102370.47;;;18.65;81.88
49827;BME280;35715;51.570;6.036;2022-07-12T06:14:30;102370.38;;;18.78;82.16
49827;BME280;35715;51.570;6.036;2022-07-12T06:16:56;102372.94;;;19.06;81.95
49827;BME280;35715;51.570;6.036;2022-07-12T06:19:21;102381.00;;;19.57;81.13
49827;BME280;35715;51.570;6.036;2022-07-12T06:21:49;102393.53;;;20.27;79.03
49827;BME280;35715;51.570;6.036;2022-07-12T06:24:14;102402.44;;;20.64;77.68
49827;BME280;35715;51.570;6.036;2022-07-12T06:26:40;102397.56;;;21.24;74.64
49827;BME280;35715;51.570;6.036;2022-07-12T06:29:06;102400.94;;;21.57;72.88
49827;BME280;35715;51.570;6.036;2022-07-12T06:31:31;102400.75;;;22.10;71.17
49827;BME280;35715;51.570;6.036;2022-07-12T06:33:56;102403.03;;;22.61;69.48
49827;BME280;35715;51.570;6.036;2022-07-12T06:36:51;102393.41;;;23.03;67.03
49827;BME280;35715;51.570;6.036;2022-07-12T06:39:17;102397.31;;;23.34;65.58
49827;BME280;35715;51.570;6.036;2022-07-12T06:41:42;102395.16;;;23.69;64.32
49827;BME280;35715;51.570;6.036;2022-07-12T06:44:07;102389.88;;;23.69;63.36
49827;BME280;35715;51.570;6.036;2022-07-12T06:46:43;102393.00;;;23.36;63.82
49827;BME280;35715;51.570;6.036;2022-07-12T06:49:08;102398.47;;;23.64;63.76
49827;BME280;35715;51.570;6.036;2022-07-12T06:51:33;102393.66;;;24.23;62.75
49827;BME280;35715;51.570;6.036;2022-07-12T06:53:59;102402.22;;;24.91;60.87
49827;BME280;35715;51.570;6.036;2022-07-12T06:56:26;102393.94;;;25.33;59.59
49827;BME280;35715;51.570;6.036;2022-07-12T06:58:51;102392.50;;;25.45;58.82
49827;BME280;35715;51.570;6.036;2022-07-12T07:01:17;102397.47;;;25.93;56.68
49827;BME280;35715;51.570;6.036;2022-07-12T07:03:43;102390.31;;;26.18;55.02
49827;BME280;35715;51.570;6.036;2022-07-12T07:06:08;102386.81;;;26.20;54.83
49827;BME280;35715;51.570;6.036;2022-07-12T07:08:33;102390.84;;;26.06;55.80
49827;BME280;35715;51.570;6.036;2022-07-12T07:10:59;102392.19;;;26.24;55.47
49827;BME280;35715;51.570;6.036;2022-07-12T07:13:24;102395.09;;;26.65;54.38
49827;BME280;35715;51.570;6.036;2022-07-12T07:15:56;102395.91;;;26.97;52.89
49827;BME280;35715;51.570;6.036;2022-07-12T07:18:22;102397.44;;;27.24;52.43
49827;BME280;35715;51.570;6.036;2022-07-12T07:20:47;102387.66;;;27.59;51.45
49827;BME280;35715;51.570;6.036;2022-07-12T07:23:12;102393.59;;;27.90;49.76
49827;BME280;35715;51.570;6.036;2022-07-12T07:25:52;102388.91;;;28.18;48.33
49827;BME280;35715;51.570;6.036;2022-07-12T07:28:18;102389.06;;;28.27;48.57
49827;BME280;35715;51.570;6.036;2022-07-12T07:30:43;102388.50;;;28.44;47.70
49827;BME280;35715;51.570;6.036;2022-07-12T07:33:21;102383.22;;;28.96;47.20
49827;BME280;35715;51.570;6.036;2022-07-12T07:35:48;102382.66;;;29.18;45.54
49827;BME280;35715;51.570;6.036;2022-07-12T07:38:15;102384.81;;;29.43;44.78
49827;BME280;35715;51.570;6.036;2022-07-12T07:40:41;102382.84;;;29.92;44.05
49827;BME280;35715;51.570;6.036;2022-07-12T07:43:06;102387.69;;;30.32;43.75
49827;BME280;35715;51.570;6.036;2022-07-12T07:45:32;102392.44;;;30.59;44.00
49827;BME280;35715;51.570;6.036;2022-07-12T07:47:57;102394.75;;;30.28;43.12
49827;BME280;35715;51.570;6.036;2022-07-12T07:50:22;102391.00;;;30.09;42.84
49827;BME280;35715;51.570;6.036;2022-07-12T07:52:48;102391.16;;;30.24;42.87
49827;BME280;35715;51.570;6.036;2022-07-12T07:55:15;102396.56;;;30.31;42.50
49827;BME280;35715;51.570;6.036;2022-07-12T07:57:40;102389.97;;;29.96;43.33
49827;BME280;35715;51.570;6.036;2022-07-12T08:00:06;102389.19;;;30.05;42.39
49827;BME280;35715;51.570;6.036;2022-07-12T08:02:32;102387.97;;;29.78;42.87
49827;BME280;35715;51.570;6.036;2022-07-12T08:04:57;102388.25;;;29.34;43.15
49827;BME280;35715;51.570;6.036;2022-07-12T08:07:26;102392.25;;;29.07;42.98
49827;BME280;35715;51.570;6.036;2022-07-12T08:09:52;102389.59;;;28.57;44.17
49827;BME280;35715;51.570;6.036;2022-07-12T08:12:17;102378.75;;;28.44;44.70
49827;BME280;35715;51.570;6.036;2022-07-12T08:14:42;102385.44;;;28.21;44.67
49827;BME280;35715;51.570;6.036;2022-07-12T08:17:08;102381.66;;;28.09;44.47
49827;BME280;35715;51.570;6.036;2022-07-12T08:19:33;102377.81;;;27.54;46.23
49827;BME280;35715;51.570;6.036;2022-07-12T08:21:59;102380.75;;;27.66;45.85
49827;BME280;35715;51.570;6.036;2022-07-12T08:24:24;102381.69;;;28.11;45.79
49827;BME280;35715;51.570;6.036;2022-07-12T08:26:50;102378.06;;;28.55;44.22
49827;BME280;35715;51.570;6.036;2022-07-12T08:29:15;102377.97;;;28.50;44.94
49827;BME280;35715;51.570;6.036;2022-07-12T08:31:41;102383.75;;;28.75;44.01
49827;BME280;35715;51.570;6.036;2022-07-12T08:34:06;102373.19;;;29.33;43.14
49827;BME280;35715;51.570;6.036;2022-07-12T08:36:33;102368.38;;;29.09;42.01
49827;BME280;35715;51.570;6.036;2022-07-12T08:38:58;102370.28;;;28.64;44.42
49827;BME280;35715;51.570;6.036;2022-07-12T08:41:24;102371.03;;;28.09;44.13
49827;BME280;35715;51.570;6.036;2022-07-12T08:43:49;102376.75;;;28.31;44.33
49827;BME280;35715;51.570;6.036;2022-07-12T08:46:15;102380.34;;;28.33;43.79
49827;BME280;35715;51.570;6.036;2022-07-12T08:48:42;102389.72;;;28.15;44.65
49827;BME280;35715;51.570;6.036;2022-07-12T08:51:10;102386.03;;;28.55;44.36
49827;BME280;35715;51.570;6.036;2022-07-12T08:53:36;102369.81;;;29.49;43.02
49827;BME280;35715;51.570;6.036;2022-07-12T08:56:04;102377.22;;;30.47;40.44
49827;BME280;35715;51.570;6.036;2022-07-12T08:58:29;102387.28;;;30.81;39.00
49827;BME280;35715;51.570;6.036;2022-07-12T09:00:55;102381.34;;;31.17;38.13
49827;BME280;35715;51.570;6.036;2022-07-12T09:03:20;102387.91;;;31.78;37.45
49827;BME280;35715;51.570;6.036;2022-07-12T09:05:54;102385.25;;;31.76;37.46
49827;BME280;35715;51.570;6.036;2022-07-12T09:08:28;102391.63;;;32.12;36.35
49827;BME280;35715;51.570;6.036;2022-07-12T09:11:01;102392.56;;;32.24;36.86
49827;BME280;35715;51.570;6.036;2022-07-12T09:13:47;102384.56;;;32.48;36.23
49827;BME280;35715;51.570;6.036;2022-07-12T09:16:23;102391.63;;;32.18;36.54
49827;BME280;35715;51.570;6.036;2022-07-12T09:18:50;102400.59;;;32.62;36.48
49827;BME280;35715;51.570;6.036;2022-07-12T09:21:25;102390.72;;;33.43;33.81
49827;BME280;35715;51.570;6.036;2022-07-12T09:23:53;102402.13;;;34.02;33.40
49827;BME280;35715;51.570;6.036;2022-07-12T09:26:24;102399.59;;;33.60;33.78
49827;BME280;35715;51.570;6.036;2022-07-12T09:28:50;102403.13;;;33.84;34.18
49827;BME280;35715;51.570;6.036;2022-07-12T09:31:16;102394.84;;;34.21;32.79
49827;BME280;35715;51.570;6.036;2022-07-12T09:33:59;102388.53;;;34.36;31.49
49827;BME280;35715;51.570;6.036;2022-07-12T09:37:04;102391.91;;;34.64;32.59
49827;BME280;35715;51.570;6.036;2022-07-12T09:39:29;102382.94;;;34.64;32.64
49827;BME280;35715;51.570;6.036;2022-07-12T09:41:55;102380.41;;;34.47;32.83
49827;BME280;35715;51.570;6.036;2022-07-12T09:44:22;102380.47;;;34.41;32.89
49827;BME280;35715;51.570;6.036;2022-07-12T09:46:51;102378.72;;;34.34;32.98
49827;BME280;35715;51.570;6.036;2022-07-12T09:49:16;102381.38;;;34.37;32.93
49827;BME280;35715;51.570;6.036;2022-07-12T09:51:43;102372.66;;;34.04;33.18
49827;BME280;35715;51.570;6.036;2022-07-12T09:54:13;102373.66;;;33.87;32.69
49827;BME280;35715;51.570;6.036;2022-07-12T09:56:47;102370.91;;;33.98;32.54
49827;BME280;35715;51.570;6.036;2022-07-12T09:59:13;102364.81;;;33.59;33.38
49827;BME280;35715;51.570;6.036;2022-07-12T10:01:41;102362.09;;;33.74;34.33
49827;BME280;35715;51.570;6.036;2022-07-12T10:04:07;102367.22;;;34.15;33.24
49827;BME280;35715;51.570;6.036;2022-07-12T10:06:43;102371.31;;;34.68;31.88
49827;BME280;35715;51.570;6.036;2022-07-12T10:09:09;102370.00;;;35.12;32.15
49827;BME280;35715;51.570;6.036;2022-07-12T10:11:37;102376.75;;;35.49;30.45
49827;BME280;35715;51.570;6.036;2022-07-12T10:14:02;102380.84;;;35.84;29.94
49827;BME280;35715;51.570;6.036;2022-07-12T10:16:29;102383.78;;;36.26;28.98
49827;BME280;35715;51.570;6.036;2022-07-12T10:19:21;102379.25;;;36.33;28.82
49827;BME280;35715;51.570;6.036;2022-07-12T10:21:49;102384.28;;;35.94;29.35
49827;BME280;35715;51.570;6.036;2022-07-12T10:29:52;102372.22;;;36.21;28.64
49827;BME280;35715;51.570;6.036;2022-07-12T10:32:25;102365.16;;;36.70;29.74
49827;BME280;35715;51.570;6.036;2022-07-12T10:35:01;102361.00;;;37.02;27.94
49827;BME280;35715;51.570;6.036;2022-07-12T10:37:37;102367.41;;;36.96;27.30
49827;BME280;35715;51.570;6.036;2022-07-12T10:40:12;102364.69;;;36.98;26.38
49827;BME280;35715;51.570;6.036;2022-07-12T10:42:38;102354.81;;;36.98;27.17
49827;BME280;35715;51.570;6.036;2022-07-12T10:45:23;102359.25;;;36.49;27.50
49827;BME280;35715;51.570;6.036;2022-07-12T10:47:56;102352.78;;;36.59;28.04
49827;BME280;35715;51.570;6.036;2022-07-12T10:58:59;102350.72;;;36.77;26.87
49827;BME280;35715;51.570;6.036;2022-07-12T11:01:27;102351.00;;;37.10;26.49
49827;BME280;35715;51.570;6.036;2022-07-12T11:04:09;102346.56;;;36.56;26.60
49827;BME280;35715;51.570;6.036;2022-07-12T11:06:41;102353.25;;;36.32;26.68
49827;BME280;35715;51.570;6.036;2022-07-12T11:09:08;102350.78;;;35.52;28.90
49827;BME280;35715;51.570;6.036;2022-07-12T11:11:41;102344.41;;;36.23;27.19
49827;BME280;35715;51.570;6.036;2022-07-12T11:14:09;102348.38;;;36.55;27.45
49827;BME280;35715;51.570;6.036;2022-07-12T11:16:54;102342.53;;;36.83;26.11
49827;BME280;35715;51.570;6.036;2022-07-12T11:19:24;102339.66;;;36.92;26.58
49827;BME280;35715;51.570;6.036;2022-07-12T11:21:50;102340.50;;;36.45;27.03
49827;BME280;35715;51.570;6.036;2022-07-12T11:24:24;102333.19;;;36.53;26.59
49827;BME280;35715;51.570;6.036;2022-07-12T11:26:57;102334.50;;;36.29;25.09
49827;BME280;35715;51.570;6.036;2022-07-12T11:29:24;102326.44;;;36.29;26.21
49827;BME280;35715;51.570;6.036;2022-07-12T11:31:59;102319.53;;;37.12;26.35
49827;BME280;35715;51.570;6.036;2022-07-12T11:34:26;102319.13;;;37.76;25.35
49827;BME280;35715;51.570;6.036;2022-07-12T11:37:00;102329.75;;;36.96;24.96
49827;BME280;35715;51.570;6.036;2022-07-12T11:39:36;102331.28;;;36.58;25.43
49827;BME280;35715;51.570;6.036;2022-07-12T11:42:03;102338.16;;;36.76;25.78
49827;BME280;35715;51.570;6.036;2022-07-12T11:47:12;102330.78;;;37.34;25.39
49827;BME280;35715;51.570;6.036;2022-07-12T11:49:44;102335.81;;;37.51;24.63
49827;BME280;35715;51.570;6.036;2022-07-12T11:52:18;102333.63;;;37.69;24.22
49827;BME280;35715;51.570;6.036;2022-07-12T11:54:44;102327.56;;;37.99;25.11
49827;BME280;35715;51.570;6.036;2022-07-12T11:57:11;102330.34;;;38.34;24.53
49827;BME280;35715;51.570;6.036;2022-07-12T11:59:37;102327.78;;;38.28;24.75
49827;BME280;35715;51.570;6.036;2022-07-12T12:04:30;102323.34;;;38.25;23.86
49827;BME280;35715;51.570;6.036;2022-07-12T12:06:57;102318.47;;;38.04;23.31
49827;BME280;35715;51.570;6.036;2022-07-12T12:09:22;102322.25;;;37.96;23.89
49827;BME280;35715;51.570;6.036;2022-07-12T12:11:48;102321.50;;;38.27;23.96
49827;BME280;35715;51.570;6.036;2022-07-12T12:14:13;102324.28;;;38.24;23.43
49827;BME280;35715;51.570;6.036;2022-07-12T12:16:39;102335.44;;;38.07;23.21
49827;BME280;35715;51.570;6.036;2022-07-12T12:19:10;102323.91;;;38.02;23.16
49827;BME280;35715;51.570;6.036;2022-07-12T12:21:35;102317.09;;;37.86;22.24
49827;BME280;35715;51.570;6.036;2022-07-12T12:24:10;102309.41;;;37.69;23.03
49827;BME280;35715;51.570;6.036;2022-07-12T12:26:37;102314.78;;;37.67;23.74
49827;BME280;35715;51.570;6.036;2022-07-12T12:29:02;102312.25;;;37.19;24.08
49827;BME280;35715;51.570;6.036;2022-07-12T12:31:28;102303.69;;;36.98;25.42
49827;BME280;35715;51.570;6.036;2022-07-12T12:33:55;102306.28;;;37.03;24.54
49827;BME280;35715;51.570;6.036;2022-07-12T12:36:29;102304.22;;;36.69;24.90
49827;BME280;35715;51.570;6.036;2022-07-12T12:39:00;102302.31;;;36.74;24.93
49827;BME280;35715;51.570;6.036;2022-07-12T12:41:27;102297.84;;;36.73;24.37
49827;BME280;35715;51.570;6.036;2022-07-12T12:44:01;102289.00;;;36.68;25.67
49827;BME280;35715;51.570;6.036;2022-07-12T12:46:46;102284.72;;;36.56;25.78
49827;BME280;35715;51.570;6.036;2022-07-12T12:49:16;102291.38;;;36.85;25.97
49827;BME280;35715;51.570;6.036;2022-07-12T12:51:55;102287.78;;;36.86;25.46
49827;BME280;35715;51.570;6.036;2022-07-12T12:54:33;102296.19;;;36.14;26.50
49827;BME280;35715;51.570;6.036;2022-07-12T12:57:07;102289.41;;;35.90;25.24
49827;BME280;35715;51.570;6.036;2022-07-12T12:59:32;102290.94;;;36.05;26.17
49827;BME280;35715;51.570;6.036;2022-07-12T13:01:58;102283.41;;;36.30;25.58
49827;BME280;35715;51.570;6.036;2022-07-12T13:04:30;102276.91;;;36.42;24.89
49827;BME280;35715;51.570;6.036;2022-07-12T13:06:59;102284.81;;;36.51;25.21
49827;BME280;35715;51.570;6.036;2022-07-12T13:09:25;102288.47;;;36.47;25.73
49827;BME280;35715;51.570;6.036;2022-07-12T13:11:51;102268.34;;;36.18;25.60